createdAt,value
2022-08-17T00:00:42.944Z,27.73
2022-08-17T00:03:15.759Z,17.97
2022-08-17T00:05:52.881Z,24.52
2022-08-17T00:08:24.831Z,24.48
2022-08-17T00:10:54.289Z,31.33
2022-08-17T00:13:31.323Z,25.42
2022-08-17T00:16:03.958Z,25.75
2022-08-17T00:19:00.987Z,20.27
2022-08-17T00:21:25.260Z,23.05
2022-08-17T00:23:54.758Z,27.55
2022-08-17T00:26:34.563Z,17.25
2022-08-17T00:29:19.423Z,15.57
2022-08-17T00:31:48.969Z,17.30
2022-08-17T00:34:17.738Z,19.42
2022-08-17T00:36:46.161Z,18.25
2022-08-17T00:39:14.347Z,15.93
2022-08-17T00:41:42.854Z,15.73
2022-08-17T00:44:11.368Z,15.93
2022-08-17T00:46:41.897Z,17.83
2022-08-17T00:49:12.564Z,19.20
2022-08-17T00:52:11.679Z,15.02
2022-08-17T00:54:44.222Z,15.20
2022-08-17T01:00:02.630Z,15.40
2022-08-17T01:02:42.800Z,20.50
2022-08-17T01:05:20.006Z,14.40
2022-08-17T01:07:50.962Z,15.38
2022-08-17T01:10:59.360Z,28.17
2022-08-17T01:13:12.843Z,15.50
2022-08-17T01:15:51.130Z,16.48
2022-08-17T01:18:19.486Z,20.05
2022-08-17T01:20:55.139Z,16.58
2022-08-17T01:23:25.607Z,16.52
2022-08-17T01:25:58.164Z,19.10
2022-08-17T01:28:52.359Z,24.23
2022-08-17T01:31:18.919Z,19.95
2022-08-17T01:33:47.426Z,26.63
2022-08-17T01:36:15.604Z,20.13
2022-08-17T01:38:43.791Z,19.17
2022-08-17T01:41:16.215Z,23.95
2022-08-17T01:43:52.557Z,19.00
2022-08-17T01:46:30.509Z,18.83
2022-08-17T01:49:00.526Z,17.52
2022-08-17T01:51:31.740Z,20.27
2022-08-17T01:54:05.838Z,17.30
2022-08-17T01:56:35.894Z,18.80
2022-08-17T01:59:04.505Z,16.70
2022-08-17T02:01:34.719Z,17.17
2022-08-17T02:04:03.649Z,16.33
2022-08-17T02:06:45.097Z,16.30
2022-08-17T02:09:26.262Z,16.27
2022-08-17T02:12:37.251Z,14.30
2022-08-17T02:14:49.021Z,14.93
2022-08-17T02:17:17.334Z,18.60
2022-08-17T02:19:45.606Z,15.43
2022-08-17T02:22:14.021Z,14.70
2022-08-17T02:25:00.983Z,17.73
2022-08-17T02:27:30.229Z,13.65
2022-08-17T02:29:58.414Z,13.10
2022-08-17T02:32:28.007Z,14.95
2022-08-17T02:35:00.570Z,13.35
2022-08-17T02:37:30.119Z,15.15
2022-08-17T02:39:59.579Z,13.70
2022-08-17T02:42:33.893Z,14.48
2022-08-17T02:45:03.548Z,13.15
2022-08-17T02:47:31.753Z,13.98
2022-08-17T02:50:00.157Z,14.18
2022-08-17T02:52:43.139Z,19.02
2022-08-17T02:55:28.018Z,16.45
2022-08-17T02:57:57.084Z,14.73
2022-08-17T03:00:33.047Z,16.60
2022-08-17T03:03:02.617Z,24.23
2022-08-17T03:05:33.941Z,18.58
2022-08-17T03:08:02.859Z,40.40
2022-08-17T03:10:31.204Z,22.35
2022-08-17T03:13:00.273Z,16.95
2022-08-17T03:15:32.063Z,18.13
2022-08-17T03:18:01.780Z,17.35
2022-08-17T03:20:32.276Z,19.77
2022-08-17T03:23:02.791Z,14.88
2022-08-17T03:25:35.141Z,14.30
2022-08-17T03:28:04.181Z,16.00
2022-08-17T03:30:33.526Z,16.42
2022-08-17T03:33:04.344Z,17.42
2022-08-17T03:35:34.974Z,14.80
2022-08-17T03:38:04.161Z,14.77
2022-08-17T03:40:55.607Z,15.35
2022-08-17T03:43:23.180Z,14.07
2022-08-17T03:45:52.079Z,14.18
2022-08-17T03:48:22.164Z,15.30
2022-08-17T03:50:50.804Z,13.80
2022-08-17T03:53:19.124Z,17.35
2022-08-17T03:55:47.258Z,15.85
2022-08-17T03:58:15.615Z,16.13
2022-08-17T04:00:43.902Z,15.80
2022-08-17T04:03:13.671Z,14.32
2022-08-17T04:05:42.630Z,14.55
2022-08-17T04:08:11.729Z,14.60
2022-08-17T04:10:41.374Z,15.02
2022-08-17T04:13:13.938Z,14.07
2022-08-17T04:15:42.359Z,14.73
2022-08-17T04:18:11.035Z,16.45
2022-08-17T04:20:39.719Z,14.77
2022-08-17T04:23:14.932Z,13.98
2022-08-17T04:25:46.923Z,14.60
2022-08-17T04:28:20.985Z,14.75
2022-08-17T04:30:49.717Z,14.75
2022-08-17T04:33:27.088Z,13.68
2022-08-17T04:35:58.454Z,15.10
2022-08-17T04:38:30.781Z,15.27
2022-08-17T04:41:01.022Z,14.50
2022-08-17T04:43:30.965Z,15.07
2022-08-17T04:46:02.808Z,13.73
2022-08-17T04:48:36.923Z,14.90
2022-08-17T04:51:09.741Z,15.38
2022-08-17T04:53:42.213Z,15.10
2022-08-17T04:56:16.721Z,15.68
2022-08-17T04:58:48.202Z,14.38
2022-08-17T05:01:24.018Z,15.52
2022-08-17T05:03:57.636Z,14.00
2022-08-17T05:06:27.062Z,15.77
2022-08-17T05:08:56.322Z,16.40
2022-08-17T05:11:25.919Z,14.60
2022-08-17T05:13:55.843Z,13.93
2022-08-17T05:16:25.691Z,14.45
2022-08-17T05:18:53.985Z,14.73
2022-08-17T05:21:23.677Z,14.35
2022-08-17T05:23:54.830Z,15.55
2022-08-17T05:26:27.225Z,14.57
2022-08-17T05:29:00.335Z,15.55
2022-08-17T05:31:29.456Z,14.23
2022-08-17T05:33:58.113Z,14.70
2022-08-17T05:36:42.603Z,14.27
2022-08-17T05:39:16.462Z,15.23
2022-08-17T05:41:48.745Z,13.70
2022-08-17T05:44:17.644Z,14.07
2022-08-17T05:46:51.282Z,14.70
2022-08-17T05:49:27.247Z,14.68
2022-08-17T05:51:58.234Z,17.00
2022-08-17T05:54:38.447Z,17.90
2022-08-17T05:57:43.618Z,16.50
2022-08-17T06:01:06.129Z,14.98
2022-08-17T06:03:44.102Z,14.13
2022-08-17T06:06:40.694Z,15.98
2022-08-17T06:09:33.499Z,17.50
2022-08-17T06:12:31.547Z,18.00
2022-08-17T06:15:21.652Z,15.85
2022-08-17T06:17:56.637Z,15.82
2022-08-17T06:20:27.696Z,15.32
2022-08-17T06:23:04.748Z,15.32
2022-08-17T06:25:44.978Z,15.98
2022-08-17T06:28:22.682Z,16.85
2022-08-17T06:30:58.545Z,15.13
2022-08-17T06:33:36.347Z,15.90
2022-08-17T06:36:26.393Z,14.80
2022-08-17T06:39:13.160Z,15.18
2022-08-17T06:42:04.008Z,16.58
2022-08-17T06:44:51.248Z,15.85
2022-08-17T06:47:35.047Z,18.08
2022-08-17T06:50:26.126Z,20.83
2022-08-17T06:53:05.223Z,16.52
2022-08-17T06:55:51.030Z,20.90
2022-08-17T06:58:29.552Z,19.45
2022-08-17T07:01:19.704Z,17.65
2022-08-17T07:03:57.045Z,24.58
2022-08-17T07:06:33.498Z,20.88
2022-08-17T07:09:26.236Z,16.33
2022-08-17T07:11:59.666Z,16.70
2022-08-17T07:14:44.141Z,17.70
2022-08-17T07:17:16.066Z,16.45
2022-08-17T07:19:47.770Z,17.02
2022-08-17T07:22:54.463Z,17.60
2022-08-17T07:25:24.275Z,15.75
2022-08-17T07:27:58.253Z,16.90
2022-08-17T07:30:45.502Z,22.40
2022-08-17T07:33:26.201Z,17.50
2022-08-17T07:35:56.642Z,31.27
2022-08-17T07:38:26.971Z,28.48
2022-08-17T07:40:55.521Z,23.05
2022-08-17T07:43:26.388Z,50.95
2022-08-17T07:46:12.231Z,24.23
2022-08-17T07:48:43.227Z,24.88
2022-08-17T07:51:23.539Z,24.65
2022-08-17T07:53:53.438Z,19.20
2022-08-17T07:56:37.120Z,46.50
2022-08-17T07:59:15.781Z,56.92
2022-08-17T08:01:48.958Z,49.53
2022-08-17T08:04:59.816Z,61.42
2022-08-17T08:07:52.538Z,56.13
2022-08-17T08:10:36.856Z,109.53
2022-08-17T08:13:37.517Z,56.35
2022-08-17T08:16:19.554Z,15.88
2022-08-17T08:18:55.982Z,36.30
2022-08-17T08:21:39.048Z,17.80
2022-08-17T08:24:16.450Z,20.58
2022-08-17T08:27:17.896Z,20.83
2022-08-17T08:30:08.295Z,18.10
2022-08-17T08:32:42.355Z,17.98
2022-08-17T08:35:35.000Z,17.55
2022-08-17T08:38:08.798Z,16.48
2022-08-17T08:41:21.226Z,14.25
2022-08-17T08:44:15.017Z,15.93
2022-08-17T08:47:10.848Z,16.83
2022-08-17T08:50:38.126Z,15.27
2022-08-17T08:53:28.234Z,15.20
2022-08-17T08:56:35.182Z,13.95
2022-08-17T08:59:16.254Z,14.75
2022-08-17T09:02:07.686Z,16.70
2022-08-17T09:05:16.201Z,14.77
2022-08-17T09:08:00.318Z,16.55
2022-08-17T09:10:54.179Z,17.52
2022-08-17T09:13:44.918Z,16.58
2022-08-17T09:16:30.196Z,15.75
2022-08-17T09:19:05.640Z,16.15
2022-08-17T09:21:48.569Z,15.23
2022-08-17T09:24:27.855Z,14.52
2022-08-17T09:27:08.901Z,14.43
2022-08-17T09:29:43.440Z,13.80
2022-08-17T09:32:25.090Z,15.05
2022-08-17T09:35:02.659Z,16.95
2022-08-17T09:38:12.459Z,16.13
2022-08-17T09:41:00.822Z,15.93
2022-08-17T09:43:29.110Z,15.25
2022-08-17T09:46:06.556Z,14.32
2022-08-17T09:48:42.081Z,15.23
2022-08-17T09:51:33.795Z,17.65
2022-08-17T09:54:34.733Z,14.70
2022-08-17T09:57:25.823Z,14.75
2022-08-17T10:00:06.906Z,16.08
2022-08-17T10:03:26.722Z,29.10
2022-08-17T10:06:07.107Z,18.67
2022-08-17T10:08:49.700Z,16.83
2022-08-17T10:11:33.451Z,16.58
2022-08-17T10:14:35.943Z,13.10
2022-08-17T10:17:12.005Z,14.53
2022-08-17T10:19:49.763Z,13.80
2022-08-17T10:22:34.800Z,15.32
2022-08-17T10:25:22.605Z,14.77
2022-08-17T10:27:59.380Z,14.98
2022-08-17T10:30:32.191Z,14.27
2022-08-17T10:33:05.498Z,14.70
2022-08-17T10:35:45.036Z,15.13
2022-08-17T10:38:36.648Z,15.52
2022-08-17T10:41:38.174Z,14.93
2022-08-17T10:44:39.319Z,16.02
2022-08-17T10:47:08.415Z,15.52
2022-08-17T10:49:39.952Z,12.50
2022-08-17T10:52:28.731Z,14.57
2022-08-17T10:54:58.708Z,14.23
2022-08-17T10:57:38.209Z,14.90
2022-08-17T11:00:15.020Z,15.65
2022-08-17T11:02:54.564Z,15.82
2022-08-17T11:05:44.043Z,13.98
2022-08-17T11:08:24.997Z,15.32
2022-08-17T11:11:27.745Z,14.35
2022-08-17T11:14:34.543Z,16.58
2022-08-17T11:17:21.753Z,15.05
2022-08-17T11:20:13.536Z,15.35
2022-08-17T11:23:29.968Z,15.80
2022-08-17T11:26:01.239Z,20.15
2022-08-17T11:28:46.467Z,18.70
2022-08-17T11:31:39.869Z,18.88
2022-08-17T11:34:25.616Z,20.83
2022-08-17T11:37:21.805Z,17.45
2022-08-17T11:40:14.209Z,12.57
2022-08-17T11:43:20.071Z,13.60
2022-08-17T11:46:21.523Z,15.13
2022-08-17T11:49:12.820Z,13.48
2022-08-17T11:52:00.246Z,12.93
2022-08-17T11:54:35.813Z,13.82
2022-08-17T11:57:27.515Z,13.02
2022-08-17T12:00:23.719Z,12.30
2022-08-17T12:03:27.544Z,12.40
2022-08-17T12:06:24.158Z,12.90
2022-08-17T12:09:13.362Z,13.75
2022-08-17T12:12:11.879Z,14.95
2022-08-17T12:17:40.140Z,13.55
2022-08-17T12:20:21.286Z,13.63
2022-08-17T12:23:17.250Z,14.63
2022-08-17T12:25:59.783Z,12.95
2022-08-17T12:28:33.218Z,12.05
2022-08-17T12:31:05.020Z,13.23
2022-08-17T12:33:35.292Z,11.70
2022-08-17T12:36:09.547Z,11.65
2022-08-17T12:38:38.921Z,12.88
2022-08-17T12:41:09.241Z,13.35
2022-08-17T12:43:38.039Z,13.45
2022-08-17T12:46:14.970Z,13.25
2022-08-17T12:48:59.139Z,14.18
2022-08-17T12:51:28.840Z,11.70
2022-08-17T12:53:57.621Z,11.80
2022-08-17T12:56:26.063Z,12.70
2022-08-17T12:58:54.594Z,13.65
2022-08-17T13:01:23.348Z,13.73
2022-08-17T13:03:55.890Z,11.77
2022-08-17T13:06:31.988Z,12.45
2022-08-17T13:09:12.721Z,12.93
2022-08-17T13:11:56.844Z,12.15
2022-08-17T13:14:25.443Z,11.85
2022-08-17T13:17:00.628Z,14.48
2022-08-17T13:19:40.764Z,12.43
2022-08-17T13:22:12.832Z,11.15
2022-08-17T13:24:51.933Z,12.90
2022-08-17T13:27:22.925Z,10.90
2022-08-17T13:29:57.935Z,11.63
2022-08-17T13:32:44.300Z,12.15
2022-08-17T13:35:43.358Z,12.77
2022-08-17T13:38:33.409Z,11.45
2022-08-17T13:41:02.015Z,12.13
2022-08-17T13:43:48.215Z,12.90
2022-08-17T13:46:28.950Z,13.52
2022-08-17T13:49:05.210Z,11.25
2022-08-17T13:51:45.452Z,11.95
2022-08-17T13:54:33.070Z,13.82
2022-08-17T13:57:27.514Z,15.70
2022-08-17T14:00:10.715Z,14.60
2022-08-17T14:02:39.214Z,13.15
2022-08-17T14:05:07.591Z,12.07
2022-08-17T14:07:49.970Z,12.98
2022-08-17T14:10:20.577Z,12.80
2022-08-17T14:12:48.879Z,11.57
2022-08-17T14:15:19.669Z,14.00
2022-08-17T14:17:49.358Z,12.55
2022-08-17T14:20:21.789Z,12.48
2022-08-17T14:22:53.915Z,11.80
2022-08-17T14:27:56.247Z,12.13
2022-08-17T14:30:29.954Z,11.52
2022-08-17T14:32:59.176Z,11.60
2022-08-17T14:35:28.019Z,13.05
2022-08-17T14:37:58.133Z,11.13
2022-08-17T14:40:27.408Z,11.88
2022-08-17T14:42:57.287Z,11.43
2022-08-17T14:45:29.628Z,14.02
2022-08-17T14:48:06.161Z,18.35
2022-08-17T14:50:41.317Z,11.63
2022-08-17T14:53:11.947Z,17.15
2022-08-17T14:55:41.934Z,16.25
2022-08-17T14:58:10.484Z,14.98
2022-08-17T15:00:40.638Z,13.27
2022-08-17T15:03:09.263Z,17.40
2022-08-17T15:05:39.305Z,19.17
2022-08-17T15:08:08.316Z,10.68
2022-08-17T15:10:37.581Z,15.40
2022-08-17T15:13:13.987Z,14.60
2022-08-17T15:15:42.725Z,21.65
2022-08-17T15:18:11.228Z,14.05
2022-08-17T15:20:39.976Z,10.93
2022-08-17T15:23:08.694Z,10.50
2022-08-17T15:25:37.508Z,11.43
2022-08-17T15:28:06.004Z,15.95
2022-08-17T15:30:35.175Z,17.48
2022-08-17T15:33:04.104Z,17.15
2022-08-17T15:35:34.813Z,11.50
2022-08-17T15:38:11.261Z,12.63
2022-08-17T15:40:47.344Z,15.73
2022-08-17T15:43:27.676Z,19.35
2022-08-17T15:46:05.997Z,13.60
2022-08-17T15:48:35.815Z,18.33
2022-08-17T15:51:04.126Z,13.38
2022-08-17T15:53:32.540Z,12.85
2022-08-17T15:56:00.791Z,15.43
2022-08-17T15:58:29.862Z,18.10
2022-08-17T16:01:15.023Z,16.75
2022-08-17T16:04:04.223Z,11.10
2022-08-17T16:06:35.888Z,14.38
2022-08-17T16:09:04.578Z,14.75
2022-08-17T16:11:32.999Z,14.88
2022-08-17T16:14:01.288Z,14.38
2022-08-17T16:16:29.830Z,14.73
2022-08-17T16:18:58.883Z,15.55
2022-08-17T16:21:28.022Z,14.20
2022-08-17T16:23:58.566Z,12.75
2022-08-17T16:26:27.756Z,15.93
2022-08-17T16:28:58.521Z,15.60
2022-08-17T16:31:27.404Z,15.60
2022-08-17T16:34:16.147Z,12.68
2022-08-17T16:36:51.763Z,11.70
2022-08-17T16:39:27.403Z,13.38
2022-08-17T16:41:56.611Z,12.10
2022-08-17T16:44:25.430Z,12.85
2022-08-17T16:46:55.964Z,12.75
2022-08-17T16:49:36.260Z,18.35
2022-08-17T16:52:12.333Z,12.98
2022-08-17T16:54:44.339Z,13.02
2022-08-17T16:57:14.232Z,11.68
2022-08-17T16:59:47.784Z,14.57
2022-08-17T17:02:29.633Z,12.40
2022-08-17T17:05:25.017Z,12.93
2022-08-17T17:08:05.714Z,14.90
2022-08-17T17:10:34.001Z,12.35
2022-08-17T17:13:04.548Z,13.00
2022-08-17T17:16:01.231Z,13.68
2022-08-17T17:19:12.535Z,13.73
2022-08-17T17:22:21.120Z,23.60
2022-08-17T17:25:17.774Z,20.50
2022-08-17T17:27:55.071Z,19.08
2022-08-17T17:30:30.465Z,18.55
2022-08-17T17:33:15.522Z,12.13
2022-08-17T17:35:49.850Z,12.48
2022-08-17T17:38:29.131Z,18.35
2022-08-17T17:41:09.268Z,17.55
2022-08-17T17:43:40.592Z,21.48
2022-08-17T17:46:29.299Z,14.75
2022-08-17T17:49:01.264Z,15.15
2022-08-17T17:52:08.765Z,13.73
2022-08-17T17:54:54.308Z,12.40
2022-08-17T17:58:03.380Z,14.18
2022-08-17T18:00:40.776Z,16.13
2022-08-17T18:03:25.346Z,20.20
2022-08-17T18:06:06.894Z,22.58
2022-08-17T18:08:44.231Z,17.05
2022-08-17T18:11:54.821Z,18.92
2022-08-17T18:15:01.628Z,18.70
2022-08-17T18:17:30.249Z,23.30
2022-08-17T18:19:58.761Z,20.52
2022-08-17T18:22:27.237Z,19.73
2022-08-17T18:24:56.640Z,24.58
2022-08-17T18:27:50.402Z,17.42
2022-08-17T18:30:18.773Z,15.38
2022-08-17T18:32:47.510Z,14.80
2022-08-17T18:35:15.687Z,15.88
2022-08-17T18:37:49.286Z,16.88
2022-08-17T18:40:17.684Z,16.20
2022-08-17T18:42:57.903Z,31.27
2022-08-17T18:45:43.420Z,42.15
2022-08-17T18:48:35.545Z,23.25
2022-08-17T18:51:44.592Z,20.45
2022-08-17T18:54:25.188Z,24.10
2022-08-17T18:57:00.216Z,30.85
2022-08-17T18:59:40.685Z,41.38
2022-08-17T19:05:13.905Z,23.40
2022-08-17T19:07:45.417Z,134.60
2022-08-17T19:10:22.319Z,188.48
2022-08-17T19:13:12.262Z,112.03
2022-08-17T19:16:12.168Z,117.93
2022-08-17T19:18:52.787Z,49.25
2022-08-17T19:21:27.550Z,43.50
2022-08-17T19:24:16.263Z,39.28
2022-08-17T19:26:55.915Z,22.25
2022-08-17T19:29:35.672Z,24.65
2022-08-17T19:32:07.178Z,29.33
2022-08-17T19:34:38.092Z,32.78
2022-08-17T19:37:38.991Z,32.42
2022-08-17T19:40:51.062Z,26.38
2022-08-17T19:43:37.137Z,23.48
2022-08-17T19:46:14.814Z,21.13
2022-08-17T19:48:57.017Z,21.33
2022-08-17T19:54:23.496Z,18.67
2022-08-17T19:57:05.464Z,21.60
2022-08-17T19:59:57.476Z,20.63
2022-08-17T20:02:28.841Z,20.90
2022-08-17T20:05:02.426Z,19.17
2022-08-17T20:08:01.721Z,17.70
2022-08-17T20:10:54.504Z,18.98
2022-08-17T20:13:33.441Z,20.25
2022-08-17T20:16:04.842Z,22.45
2022-08-17T20:18:48.213Z,24.13
2022-08-17T20:21:39.927Z,23.52
2022-08-17T20:24:17.185Z,22.13
2022-08-17T20:27:04.364Z,21.85
2022-08-17T20:29:40.234Z,19.08
2022-08-17T20:32:19.902Z,19.02
2022-08-17T20:34:48.945Z,16.80
2022-08-17T20:37:17.038Z,17.65
2022-08-17T20:40:06.924Z,18.25
2022-08-17T20:42:35.993Z,18.10
2022-08-17T20:45:24.055Z,24.60
2022-08-17T20:48:22.094Z,36.92
2022-08-17T20:50:53.233Z,21.10
2022-08-17T20:53:46.030Z,20.67
2022-08-17T20:56:43.304Z,20.33
2022-08-17T20:59:23.715Z,20.02
2022-08-17T21:02:17.594Z,23.02
2022-08-17T21:04:53.060Z,39.60
2022-08-17T21:07:44.553Z,40.35
2022-08-17T21:10:21.952Z,33.28
2022-08-17T21:12:53.071Z,34.92
2022-08-17T21:15:27.791Z,33.85
2022-08-17T21:18:11.451Z,27.23
2022-08-17T21:20:59.973Z,25.17
2022-08-17T21:23:37.360Z,28.35
2022-08-17T21:26:14.572Z,21.58
2022-08-17T21:29:29.847Z,16.70
2022-08-17T21:32:18.486Z,16.23
2022-08-17T21:35:12.473Z,15.40
2022-08-17T21:37:50.613Z,16.67
2022-08-17T21:40:29.990Z,14.75
2022-08-17T21:43:06.487Z,15.65
2022-08-17T21:45:41.077Z,16.25
2022-08-17T21:48:17.346Z,15.32
2022-08-17T21:50:58.488Z,15.98
2022-08-17T21:53:36.647Z,16.42
2022-08-17T21:56:06.516Z,19.45
2022-08-17T21:58:38.058Z,17.67
2022-08-17T22:01:24.833Z,15.63
2022-08-17T22:04:04.286Z,16.25
2022-08-17T22:06:39.219Z,20.80
2022-08-17T22:09:10.637Z,19.00
2022-08-17T22:11:57.783Z,25.70
2022-08-17T22:14:53.296Z,39.25
2022-08-17T22:17:24.619Z,33.38
2022-08-17T22:20:02.575Z,19.20
2022-08-17T22:22:48.789Z,14.68
2022-08-17T22:25:23.121Z,15.15
2022-08-17T22:28:01.147Z,18.13
2022-08-17T22:30:35.157Z,17.52
2022-08-17T22:33:31.174Z,20.40
2022-08-17T22:36:30.467Z,16.73
2022-08-17T22:39:00.857Z,17.73
2022-08-17T22:41:29.127Z,16.77
2022-08-17T22:44:00.527Z,16.85
2022-08-17T22:46:30.134Z,16.10
2022-08-17T22:49:00.429Z,15.13
2022-08-17T22:51:32.280Z,14.75
2022-08-17T22:54:03.851Z,15.90
2022-08-17T22:56:32.726Z,15.93
2022-08-17T22:59:01.280Z,15.50
2022-08-17T23:01:34.926Z,16.98
2022-08-17T23:04:08.237Z,15.48
2022-08-17T23:06:39.947Z,16.52
2022-08-17T23:09:08.871Z,18.30
2022-08-17T23:11:49.414Z,28.83
2022-08-17T23:14:21.423Z,28.37
2022-08-17T23:16:51.019Z,28.17
2022-08-17T23:19:22.024Z,20.80
2022-08-17T23:21:50.831Z,21.50
2022-08-17T23:24:27.864Z,18.77
2022-08-17T23:26:57.744Z,16.58
2022-08-17T23:29:29.664Z,17.27
2022-08-17T23:32:00.092Z,17.15
2022-08-17T23:34:29.710Z,18.73
2022-08-17T23:36:58.464Z,17.67
2022-08-17T23:39:27.706Z,16.65
2022-08-17T23:42:04.130Z,15.17
2022-08-17T23:44:32.884Z,15.68
2022-08-17T23:47:01.342Z,15.00
2022-08-17T23:49:30.525Z,15.75
2022-08-17T23:52:01.860Z,15.75
2022-08-17T23:54:39.418Z,16.07
2022-08-17T23:57:07.784Z,15.43
2022-08-17T23:59:38.507Z,14.52
